Portada
METAR-TAF:

METAR-TAF

Aeroports :

Aeroport de Svalbard-Longyear

Longyearbyen, Noruega

latitud: 78-15N, longitud: 015-28E, altitud: 2 m

Observació

L'informe es va fer fa 31 minuts, a les 08:50 UTC
Vent 12 kt del Est/Sud-Est
Temperatura -14°C
Humitat 60%
Pressió 1017 hPa
Visibilitat 10 km o més
Escasses núvols a una alçada de 2500 ft

METAR: ENSB 150850Z 12012KT 9999 FEW025 M14/M20 Q1017 NOSIG RMK WIND 1400FT 25004KT

Hora: 11:21 (09:21 UTC)

Pronòstic

L'informe es va fer fa 4 hores i 21 minuts, a les 05:00 UTC
Pronòstic vàlid del 15 a les 06 UTC al 16 a les 06 UTC
Vent 10 kt del Est/Sud-Est
Visibilitat 10 km o més
Escasses núvols a una alçada de 6000 ft
Temporalment
l' 15 a les 18 UTC al 15 a les 24 UTC
Cel ennuvolat a una alçada de 1400 ft

TAF: ENSB 150500Z 1506/1606 12010KT 9999 FEW060 TEMPO 1518/1524 BKN014

Observacions i pronòstics meteorològics de més de 4000 aeroports (METAR i TAF).

Les estacions disponibles són els punts grocs i vermells al mapa.

Posi el ratolí al punt desitjat per veure el nom de l'estació.

Feu clic per veure les observacions i els pronòstics meteorològics.

Per canviar el mapa: feu clic els botons verds amb una creu de color negre per apropar; al botó verd amb un guió per allunyar la imatge; o en les fletxes verdes per a mapes adjacents.


METAR-TAF: